WEATHER DATA

TODAY
Time Temp. Dewp. Hum. Bar. 1h Prec. 24h Prec.
00:01 11.1 6 71 1011.3 0.0000 0.0000
00:12 11 6 71 1011.5 0.0000 0.0000
00:22 11 6.4 73 1011.7 0.0000 0.0000
00:32 10.8 6.2 73 1011.5 0.0000 0.0000
00:42 10.9 6.5 74 1011.7 0.0000 0.0000
00:52 10.8 6.2 73 1011.6 0.0000 0.0000
01:02 10.8 6.4 74 1011.7 0.0000 0.0000
01:12 10.9 6.5 74 1011.8 0.0000 0.0000
01:23 10.9 6.6 75 1011.7 0.0000 0.0000
01:33 10.9 6.6 75 1011.6 0.0000 0.0000
01:43 10.9 6.6 75 1011.6 0.0000 0.0000
01:53 10.9 6.6 75 1011.7 0.0000 0.0000
02:03 10.9 6.6 75 1011.5 0.0000 0.0000
02:13 10.8 6.4 74 1011.3 0.0000 0.0000
02:23 10.7 6.3 74 1011.4 0.0000 0.0000
02:34 10.7 6.3 74 1011.3 0.0000 0.0000
02:44 10.6 6.2 74 1011.4 0.0000 0.0000
02:54 10.5 6.1 74 1011.3 0.0000 0.0000
03:03 10.4 6.2 75 1011.3 0.0000 0.0000
03:14 10.4 6.2 75 1011.2 0.0000 0.0000
03:24 10.3 6.1 75 1011.1 0.0000 0.0000
03:34 10.3 6.1 75 1011.2 0.0000 0.0000
03:44 10.2 6 75 1011 0.0000 0.0000
03:55 10.1 5.9 75 1011.2 0.0000 0.0000
04:04 10.1 5.9 75 1011.3 0.0000 0.0000
04:14 10 5.8 75 1011.3 0.0000 0.0000
04:25 9.9 5.7 75 1011.4 0.0000 0.0000
04:35 9.7 5.5 75 1011 0.0000 0.0000
04:45 9.6 5.4 75 1011.1 0.0000 0.0000
04:55 9.5 5.3 75 1011.1 0.0000 0.0000
05:05 9.3 5.3 76 1011.1 0.0000 0.0000
05:15 9.2 5.2 76 1011.2 0.0000 0.0000
05:25 9.2 5.2 76 1011.2 0.0000 0.0000
05:35 9.1 5.1 76 1011.1 0.0000 0.0000
05:46 9 5 76 1011 0.0000 0.0000
05:56 9 5 76 1010.9 0.0000 0.0000
06:03 9 5.2 77 1010.9 0.0000 0.0000
06:14 8.9 5.1 77 1010.5 0.0000 0.0000
06:26 8.9 5.1 77 1010.9 0.0000 0.0000
06:31 8.9 5.1 77 1010.8 0.0000 0.0000
06:45 9 5.2 77 1011.2 0.0000 0.0000
06:48 9 5.2 77 1011.7 0.0000 0.0000
07:57 9.5 5.7 77 1011.7 0.0000 0.0000
08:02 9.6 5.8 77 1011.6 0.2020 0.2020
08:13 9.6 5.8 77 1011.7 0.4040 0.4040
08:23 9.7 5.9 77 1011.8 0.4040 0.4040
08:32 9.7 5.9 77 1011.9 0.4040 0.4040
08:44 9.9 6.1 77 1011.7 0.4040 0.4040
08:54 10 6.2 77 1011.6 0.4040 0.4040
09:03 10.1 6.3 77 1011.6 0.0000 0.4040
09:13 10.2 6.2 76 1011.7 0.0000 0.4040
09:22 10.3 6.3 76 1011.7 0.0000 0.4040
09:34 10.4 6.4 76 1011.9 0.0000 0.4040
09:44 10.5 6.5 76 1012 0.0000 0.4040
09:46 10.5 6.5 76 1011.9 0.0000 0.4040
10:00 10.6 6.6 76 1012 0.0000 0.4040
10:11 10.7 6.6 76 1011.9 0.0000 0.4040
10:19 10.7 6.6 76 1012.1 0.0000 0.4040
10:44 11.1 7.2 77 1012.1 0.0000 0.4040
10:54 11.3 7.2 76 1012.4 0.0000 0.4040
11:05 11.5 7.4 76 1012.3 0.0000 0.4040
11:15 11.4 7.5 77 1012.3 0.0000 0.4040
11:22 11.3 7.6 78 1012.2 0.0000 0.4040
11:34 11.1 7.6 79 1012.2 0.0000 0.4040
11:45 11.2 7.9 80 1012.2 0.0000 0.4040
11:55 11.1 7.8 80 1012.4 0.0000 0.4040
12:05 11.2 7.9 80 1012.4 0.0000 0.4040
12:14 11.2 7.9 80 1012.3 0.0000 0.4040
12:22 11.2 7.9 80 1012.4 0.0000 0.4040
12:35 11.3 8 80 1012.4 0.0000 0.4040
12:45 11.4 8.1 80 1012.1 0.0000 0.4040
12:49 11.5 8.2 80 1011.8 0.0000 0.4040
13:36 12 8.7 80 1011.9 0.0000 0.4040
13:46 12 8.7 80 1012.1 0.0000 0.4040
13:56 12.1 8.8 80 1012 0.0000 0.4040
14:06 12.2 8.9 80 1011.9 0.0000 0.4040
14:16 12.2 8.9 80 1012 0.0000 0.4040

DAY STATISTIC

2018-04-24
TEMPERATURE
AVERAGE
10.4
HIGH
12.2
14:06
LOW
8.9
06:14
PRESSURE
AVERAGE
1011.6
HIGH
1012.4
10:54
LOW
1010.5
06:14
DEWPOINT
AVERAGE
6.5
HIGH
8.9
14:06
LOW
5.0
05:46
HUMIDITY
AVERAGE
76
HIGH
80
11:45
LOW
71
00:01
PRECIPITATION
RAIN HOUR
0.4
RAIN DAY
0.4
TEMPERATURE (°C)
LOW
8.9
HIGH
12.2
AVERAGE
10.4
PRESSURE (hpa)
LOW
1010.5
HIGH
1012.4
AVERAGE
1011.6
DEVICE